sensor_id;sensor_type;location;lat;lon;timestamp;P1;durP1;ratioP1;P2;durP2;ratioP2
66485;SDS011;53303;47.476;8.084;2022-08-11T00:00:31;2.50;;;1.08;;
66485;SDS011;53303;47.476;8.084;2022-08-11T00:03:02;2.55;;;1.20;;
66485;SDS011;53303;47.476;8.084;2022-08-11T00:05:32;2.00;;;1.02;;
66485;SDS011;53303;47.476;8.084;2022-08-11T00:08:08;3.38;;;1.02;;
66485;SDS011;53303;47.476;8.084;2022-08-11T00:10:34;2.03;;;1.00;;
66485;SDS011;53303;47.476;8.084;2022-08-11T00:13:03;5.38;;;1.30;;
66485;SDS011;53303;47.476;8.084;2022-08-11T00:15:38;2.83;;;1.10;;
66485;SDS011;53303;47.476;8.084;2022-08-11T00:18:06;4.10;;;1.23;;
66485;SDS011;53303;47.476;8.084;2022-08-11T00:20:34;3.63;;;1.38;;
66485;SDS011;53303;47.476;8.084;2022-08-11T00:23:13;2.28;;;1.10;;
66485;SDS011;53303;47.476;8.084;2022-08-11T00:25:45;2.40;;;1.02;;
66485;SDS011;53303;47.476;8.084;2022-08-11T00:30:56;2.08;;;1.05;;
66485;SDS011;53303;47.476;8.084;2022-08-11T00:33:29;3.05;;;1.10;;
66485;SDS011;53303;47.476;8.084;2022-08-11T00:36:02;2.92;;;1.20;;
66485;SDS011;53303;47.476;8.084;2022-08-11T00:38:30;2.63;;;1.23;;
66485;SDS011;53303;47.476;8.084;2022-08-11T01:40:46;2.42;;;1.23;;
66485;SDS011;53303;47.476;8.084;2022-08-11T01:43:32;2.42;;;1.10;;
66485;SDS011;53303;47.476;8.084;2022-08-11T01:49:20;3.25;;;1.40;;
66485;SDS011;53303;47.476;8.084;2022-08-11T01:54:58;2.10;;;0.93;;
66485;SDS011;53303;47.476;8.084;2022-08-11T01:57:35;4.50;;;1.40;;
66485;SDS011;53303;47.476;8.084;2022-08-11T02:00:21;2.90;;;1.13;;
66485;SDS011;53303;47.476;8.084;2022-08-11T02:03:00;4.93;;;1.30;;
66485;SDS011;53303;47.476;8.084;2022-08-11T02:23:16;4.60;;;1.40;;
66485;SDS011;53303;47.476;8.084;2022-08-11T02:35:00;2.92;;;1.38;;
66485;SDS011;53303;47.476;8.084;2022-08-11T02:37:41;2.85;;;1.20;;
66485;SDS011;53303;47.476;8.084;2022-08-11T02:40:20;2.90;;;1.13;;
66485;SDS011;53303;47.476;8.084;2022-08-11T02:45:28;4.30;;;1.40;;
66485;SDS011;53303;47.476;8.084;2022-08-11T03:12:49;5.18;;;1.52;;
66485;SDS011;53303;47.476;8.084;2022-08-11T03:21:39;4.72;;;1.67;;
66485;SDS011;53303;47.476;8.084;2022-08-11T03:32:00;2.63;;;1.35;;
66485;SDS011;53303;47.476;8.084;2022-08-11T03:34:34;3.88;;;1.42;;
66485;SDS011;53303;47.476;8.084;2022-08-11T03:40:22;4.18;;;1.70;;
66485;SDS011;53303;47.476;8.084;2022-08-11T03:43:21;4.97;;;1.40;;
66485;SDS011;53303;47.476;8.084;2022-08-11T03:46:11;2.45;;;1.20;;
66485;SDS011;53303;47.476;8.084;2022-08-11T03:48:55;4.75;;;1.40;;
66485;SDS011;53303;47.476;8.084;2022-08-11T03:51:52;4.05;;;1.50;;
66485;SDS011;53303;47.476;8.084;2022-08-11T03:54:29;4.38;;;1.35;;
66485;SDS011;53303;47.476;8.084;2022-08-11T04:05:22;7.47;;;1.52;;
66485;SDS011;53303;47.476;8.084;2022-08-11T04:25:21;3.97;;;1.80;;
66485;SDS011;53303;47.476;8.084;2022-08-11T04:33:48;3.13;;;1.40;;
66485;SDS011;53303;47.476;8.084;2022-08-11T04:39:10;4.90;;;1.70;;
66485;SDS011;53303;47.476;8.084;2022-08-11T04:41:56;3.60;;;1.48;;
66485;SDS011;53303;47.476;8.084;2022-08-11T04:58:18;5.28;;;1.48;;
66485;SDS011;53303;47.476;8.084;2022-08-11T05:04:18;5.60;;;1.75;;
66485;SDS011;53303;47.476;8.084;2022-08-11T05:13:23;3.42;;;1.60;;
66485;SDS011;53303;47.476;8.084;2022-08-11T05:16:16;5.03;;;1.58;;
66485;SDS011;53303;47.476;8.084;2022-08-11T05:19:03;5.63;;;2.17;;
66485;SDS011;53303;47.476;8.084;2022-08-11T05:21:54;5.13;;;1.90;;
66485;SDS011;53303;47.476;8.084;2022-08-11T05:27:44;10.02;;;1.88;;
66485;SDS011;53303;47.476;8.084;2022-08-11T05:30:38;4.55;;;1.67;;
66485;SDS011;53303;47.476;8.084;2022-08-11T05:33:36;4.25;;;1.40;;
66485;SDS011;53303;47.476;8.084;2022-08-11T05:39:12;4.40;;;1.65;;
66485;SDS011;53303;47.476;8.084;2022-08-11T05:41:59;4.03;;;1.65;;
66485;SDS011;53303;47.476;8.084;2022-08-11T05:44:48;2.97;;;1.60;;
66485;SDS011;53303;47.476;8.084;2022-08-11T05:47:33;4.93;;;1.90;;
66485;SDS011;53303;47.476;8.084;2022-08-11T05:50:21;4.07;;;1.70;;
66485;SDS011;53303;47.476;8.084;2022-08-11T05:53:09;5.35;;;1.70;;
66485;SDS011;53303;47.476;8.084;2022-08-11T05:55:55;4.07;;;1.52;;
66485;SDS011;53303;47.476;8.084;2022-08-11T05:58:41;5.70;;;1.83;;
66485;SDS011;53303;47.476;8.084;2022-08-11T06:01:09;6.75;;;1.88;;
66485;SDS011;53303;47.476;8.084;2022-08-11T06:03:36;4.40;;;1.50;;
66485;SDS011;53303;47.476;8.084;2022-08-11T06:06:26;4.00;;;1.83;;
66485;SDS011;53303;47.476;8.084;2022-08-11T06:08:56;5.65;;;1.70;;
66485;SDS011;53303;47.476;8.084;2022-08-11T06:11:23;6.18;;;1.58;;
66485;SDS011;53303;47.476;8.084;2022-08-11T06:13:56;5.13;;;1.90;;
66485;SDS011;53303;47.476;8.084;2022-08-11T06:16:24;2.75;;;1.63;;
66485;SDS011;53303;47.476;8.084;2022-08-11T06:18:52;5.15;;;1.92;;
66485;SDS011;53303;47.476;8.084;2022-08-11T06:21:18;7.68;;;1.92;;
66485;SDS011;53303;47.476;8.084;2022-08-11T06:23:46;5.47;;;1.90;;
66485;SDS011;53303;47.476;8.084;2022-08-11T06:26:14;2.83;;;1.42;;
66485;SDS011;53303;47.476;8.084;2022-08-11T06:28:41;3.80;;;1.75;;
66485;SDS011;53303;47.476;8.084;2022-08-11T06:31:19;3.92;;;1.58;;
66485;SDS011;53303;47.476;8.084;2022-08-11T06:33:52;5.90;;;1.70;;
66485;SDS011;53303;47.476;8.084;2022-08-11T06:36:40;5.38;;;1.65;;
66485;SDS011;53303;47.476;8.084;2022-08-11T06:39:28;4.13;;;2.03;;
66485;SDS011;53303;47.476;8.084;2022-08-11T06:42:04;6.72;;;2.10;;
66485;SDS011;53303;47.476;8.084;2022-08-11T06:44:39;5.20;;;1.70;;
66485;SDS011;53303;47.476;8.084;2022-08-11T06:47:08;4.07;;;1.88;;
66485;SDS011;53303;47.476;8.084;2022-08-11T06:49:38;5.85;;;1.80;;
66485;SDS011;53303;47.476;8.084;2022-08-11T06:52:34;6.45;;;1.63;;
66485;SDS011;53303;47.476;8.084;2022-08-11T06:55:09;3.80;;;1.48;;
66485;SDS011;53303;47.476;8.084;2022-08-11T06:57:59;3.42;;;1.42;;
66485;SDS011;53303;47.476;8.084;2022-08-11T07:00:46;4.63;;;1.73;;
66485;SDS011;53303;47.476;8.084;2022-08-11T07:03:16;4.50;;;1.73;;
66485;SDS011;53303;47.476;8.084;2022-08-11T07:05:44;4.95;;;1.77;;
66485;SDS011;53303;47.476;8.084;2022-08-11T07:14:10;3.70;;;1.80;;
66485;SDS011;53303;47.476;8.084;2022-08-11T07:16:56;3.65;;;1.63;;
66485;SDS011;53303;47.476;8.084;2022-08-11T07:19:25;3.58;;;1.50;;
66485;SDS011;53303;47.476;8.084;2022-08-11T07:22:11;6.28;;;1.90;;
66485;SDS011;53303;47.476;8.084;2022-08-11T07:27:46;4.25;;;1.75;;
66485;SDS011;53303;47.476;8.084;2022-08-11T07:30:38;3.72;;;1.80;;
66485;SDS011;53303;47.476;8.084;2022-08-11T07:33:05;5.30;;;1.95;;
66485;SDS011;53303;47.476;8.084;2022-08-11T07:35:41;5.10;;;1.90;;
66485;SDS011;53303;47.476;8.084;2022-08-11T07:38:11;6.30;;;1.73;;
66485;SDS011;53303;47.476;8.084;2022-08-11T07:40:42;4.97;;;1.85;;
66485;SDS011;53303;47.476;8.084;2022-08-11T07:43:10;3.38;;;1.60;;
66485;SDS011;53303;47.476;8.084;2022-08-11T07:45:41;4.85;;;1.90;;
66485;SDS011;53303;47.476;8.084;2022-08-11T07:48:26;6.78;;;1.88;;
66485;SDS011;53303;47.476;8.084;2022-08-11T07:51:11;3.55;;;1.73;;
66485;SDS011;53303;47.476;8.084;2022-08-11T07:54:03;3.97;;;1.80;;
66485;SDS011;53303;47.476;8.084;2022-08-11T07:56:33;3.78;;;1.70;;
66485;SDS011;53303;47.476;8.084;2022-08-11T07:59:00;3.67;;;1.55;;
66485;SDS011;53303;47.476;8.084;2022-08-11T08:01:45;3.63;;;1.73;;
66485;SDS011;53303;47.476;8.084;2022-08-11T08:04:30;3.80;;;1.70;;
66485;SDS011;53303;47.476;8.084;2022-08-11T08:07:19;3.33;;;1.80;;
66485;SDS011;53303;47.476;8.084;2022-08-11T08:10:06;5.78;;;2.05;;
66485;SDS011;53303;47.476;8.084;2022-08-11T08:12:55;3.90;;;1.70;;
66485;SDS011;53303;47.476;8.084;2022-08-11T08:15:39;5.95;;;1.60;;
66485;SDS011;53303;47.476;8.084;2022-08-11T08:18:25;3.42;;;1.70;;
66485;SDS011;53303;47.476;8.084;2022-08-11T08:20:51;5.00;;;1.70;;
66485;SDS011;53303;47.476;8.084;2022-08-11T08:23:20;4.88;;;1.95;;
66485;SDS011;53303;47.476;8.084;2022-08-11T08:25:57;3.22;;;1.73;;
66485;SDS011;53303;47.476;8.084;2022-08-11T08:28:26;3.63;;;1.70;;
66485;SDS011;53303;47.476;8.084;2022-08-11T08:30:54;6.72;;;2.25;;
66485;SDS011;53303;47.476;8.084;2022-08-11T08:33:23;6.50;;;2.42;;
66485;SDS011;53303;47.476;8.084;2022-08-11T08:35:55;5.30;;;2.08;;
66485;SDS011;53303;47.476;8.084;2022-08-11T08:38:46;4.60;;;2.10;;
66485;SDS011;53303;47.476;8.084;2022-08-11T08:41:18;4.05;;;1.70;;
66485;SDS011;53303;47.476;8.084;2022-08-11T08:43:53;4.82;;;1.88;;
66485;SDS011;53303;47.476;8.084;2022-08-11T08:46:24;6.15;;;2.67;;
66485;SDS011;53303;47.476;8.084;2022-08-11T08:48:54;5.70;;;2.40;;
66485;SDS011;53303;47.476;8.084;2022-08-11T08:51:26;4.57;;;2.00;;
66485;SDS011;53303;47.476;8.084;2022-08-11T08:54:20;5.05;;;2.10;;
66485;SDS011;53303;47.476;8.084;2022-08-11T08:56:58;3.28;;;1.73;;
66485;SDS011;53303;47.476;8.084;2022-08-11T08:59:26;5.65;;;2.40;;
66485;SDS011;53303;47.476;8.084;2022-08-11T09:01:54;4.82;;;2.10;;
66485;SDS011;53303;47.476;8.084;2022-08-11T09:04:22;4.78;;;2.00;;
66485;SDS011;53303;47.476;8.084;2022-08-11T09:06:49;4.70;;;2.00;;
66485;SDS011;53303;47.476;8.084;2022-08-11T09:09:18;3.83;;;1.73;;
66485;SDS011;53303;47.476;8.084;2022-08-11T09:11:48;5.22;;;1.90;;
66485;SDS011;53303;47.476;8.084;2022-08-11T09:14:14;4.75;;;2.10;;
66485;SDS011;53303;47.476;8.084;2022-08-11T09:16:45;5.80;;;2.03;;
66485;SDS011;53303;47.476;8.084;2022-08-11T09:19:15;7.55;;;3.00;;
66485;SDS011;53303;47.476;8.084;2022-08-11T09:21:43;6.95;;;2.72;;
66485;SDS011;53303;47.476;8.084;2022-08-11T09:24:30;5.28;;;2.58;;
66485;SDS011;53303;47.476;8.084;2022-08-11T09:27:14;6.88;;;2.47;;
66485;SDS011;53303;47.476;8.084;2022-08-11T09:29:42;6.38;;;2.90;;
66485;SDS011;53303;47.476;8.084;2022-08-11T09:32:09;6.95;;;3.30;;
66485;SDS011;53303;47.476;8.084;2022-08-11T09:34:37;8.00;;;3.17;;
66485;SDS011;53303;47.476;8.084;2022-08-11T09:37:04;7.65;;;2.97;;
66485;SDS011;53303;47.476;8.084;2022-08-11T09:39:48;5.47;;;2.40;;
66485;SDS011;53303;47.476;8.084;2022-08-11T09:42:36;5.82;;;2.38;;
66485;SDS011;53303;47.476;8.084;2022-08-11T09:45:20;5.93;;;2.22;;
66485;SDS011;53303;47.476;8.084;2022-08-11T09:47:46;6.18;;;2.65;;
66485;SDS011;53303;47.476;8.084;2022-08-11T09:50:13;8.30;;;3.05;;
66485;SDS011;53303;47.476;8.084;2022-08-11T09:52:40;5.78;;;2.60;;
66485;SDS011;53303;47.476;8.084;2022-08-11T09:55:09;7.22;;;2.88;;
66485;SDS011;53303;47.476;8.084;2022-08-11T09:57:43;5.63;;;2.53;;
66485;SDS011;53303;47.476;8.084;2022-08-11T10:00:29;6.30;;;2.55;;
66485;SDS011;53303;47.476;8.084;2022-08-11T10:05:55;6.65;;;3.20;;
66485;SDS011;53303;47.476;8.084;2022-08-11T10:08:42;7.72;;;3.47;;
66485;SDS011;53303;47.476;8.084;2022-08-11T10:11:14;10.32;;;3.55;;
66485;SDS011;53303;47.476;8.084;2022-08-11T10:13:46;10.32;;;3.90;;
66485;SDS011;53303;47.476;8.084;2022-08-11T10:16:36;8.63;;;3.42;;
66485;SDS011;53303;47.476;8.084;2022-08-11T10:19:07;8.85;;;3.40;;
66485;SDS011;53303;47.476;8.084;2022-08-11T10:24:07;8.23;;;3.30;;
66485;SDS011;53303;47.476;8.084;2022-08-11T10:26:53;8.63;;;3.53;;
66485;SDS011;53303;47.476;8.084;2022-08-11T10:29:38;8.20;;;3.55;;
66485;SDS011;53303;47.476;8.084;2022-08-11T10:32:29;7.20;;;3.35;;
66485;SDS011;53303;47.476;8.084;2022-08-11T10:35:15;8.57;;;3.13;;
66485;SDS011;53303;47.476;8.084;2022-08-11T10:37:50;8.32;;;2.80;;
66485;SDS011;53303;47.476;8.084;2022-08-11T10:40:17;9.48;;;3.22;;
66485;SDS011;53303;47.476;8.084;2022-08-11T10:42:54;6.53;;;2.95;;
66485;SDS011;53303;47.476;8.084;2022-08-11T10:45:30;6.18;;;2.90;;
66485;SDS011;53303;47.476;8.084;2022-08-11T10:48:16;6.40;;;2.83;;
66485;SDS011;53303;47.476;8.084;2022-08-11T10:50:47;8.05;;;2.75;;
66485;SDS011;53303;47.476;8.084;2022-08-11T10:53:34;8.85;;;2.95;;
66485;SDS011;53303;47.476;8.084;2022-08-11T10:56:20;7.18;;;3.05;;
66485;SDS011;53303;47.476;8.084;2022-08-11T10:59:05;6.43;;;2.25;;
66485;SDS011;53303;47.476;8.084;2022-08-11T11:01:34;8.07;;;2.70;;
66485;SDS011;53303;47.476;8.084;2022-08-11T11:07:19;7.03;;;2.90;;
66485;SDS011;53303;47.476;8.084;2022-08-11T11:09:49;9.77;;;3.15;;
66485;SDS011;53303;47.476;8.084;2022-08-11T11:15:43;7.32;;;2.95;;
66485;SDS011;53303;47.476;8.084;2022-08-11T11:18:33;6.47;;;2.55;;
66485;SDS011;53303;47.476;8.084;2022-08-11T11:21:05;9.02;;;2.45;;
66485;SDS011;53303;47.476;8.084;2022-08-11T11:31:30;6.35;;;2.97;;
66485;SDS011;53303;47.476;8.084;2022-08-11T11:37:19;5.85;;;2.72;;
66485;SDS011;53303;47.476;8.084;2022-08-11T11:39:47;6.10;;;2.78;;
66485;SDS011;53303;47.476;8.084;2022-08-11T11:42:13;6.32;;;2.80;;
66485;SDS011;53303;47.476;8.084;2022-08-11T11:44:42;6.30;;;2.75;;
66485;SDS011;53303;47.476;8.084;2022-08-11T11:47:12;6.88;;;3.00;;
66485;SDS011;53303;47.476;8.084;2022-08-11T11:49:42;7.50;;;3.00;;
66485;SDS011;53303;47.476;8.084;2022-08-11T11:52:12;6.57;;;3.38;;
66485;SDS011;53303;47.476;8.084;2022-08-11T11:54:42;7.20;;;3.17;;
66485;SDS011;53303;47.476;8.084;2022-08-11T11:57:07;6.68;;;3.05;;
66485;SDS011;53303;47.476;8.084;2022-08-11T11:59:52;8.07;;;3.10;;
66485;SDS011;53303;47.476;8.084;2022-08-11T12:02:39;7.60;;;3.13;;
66485;SDS011;53303;47.476;8.084;2022-08-11T12:05:06;6.93;;;3.45;;
66485;SDS011;53303;47.476;8.084;2022-08-11T12:07:34;6.85;;;3.17;;
66485;SDS011;53303;47.476;8.084;2022-08-11T12:10:22;7.50;;;2.88;;
66485;SDS011;53303;47.476;8.084;2022-08-11T12:12:53;8.43;;;3.08;;
66485;SDS011;53303;47.476;8.084;2022-08-11T12:15:39;6.50;;;3.15;;
66485;SDS011;53303;47.476;8.084;2022-08-11T12:18:05;6.95;;;3.35;;
66485;SDS011;53303;47.476;8.084;2022-08-11T12:20:31;6.85;;;2.97;;
66485;SDS011;53303;47.476;8.084;2022-08-11T12:23:00;6.20;;;3.00;;
66485;SDS011;53303;47.476;8.084;2022-08-11T12:25:44;9.98;;;3.65;;
66485;SDS011;53303;47.476;8.084;2022-08-11T12:28:28;6.88;;;2.97;;
66485;SDS011;53303;47.476;8.084;2022-08-11T12:30:57;6.82;;;2.78;;
66485;SDS011;53303;47.476;8.084;2022-08-11T12:33:23;8.82;;;3.15;;
66485;SDS011;53303;47.476;8.084;2022-08-11T12:35:52;7.18;;;3.28;;
66485;SDS011;53303;47.476;8.084;2022-08-11T12:38:24;7.22;;;3.15;;
66485;SDS011;53303;47.476;8.084;2022-08-11T12:40:51;8.70;;;3.10;;
66485;SDS011;53303;47.476;8.084;2022-08-11T12:43:35;8.27;;;3.10;;
66485;SDS011;53303;47.476;8.084;2022-08-11T12:46:22;6.65;;;3.05;;
66485;SDS011;53303;47.476;8.084;2022-08-11T12:48:56;7.05;;;3.13;;
66485;SDS011;53303;47.476;8.084;2022-08-11T12:51:46;7.80;;;3.20;;
66485;SDS011;53303;47.476;8.084;2022-08-11T12:57:04;6.30;;;3.20;;
66485;SDS011;53303;47.476;8.084;2022-08-11T12:59:52;7.20;;;3.30;;
66485;SDS011;53303;47.476;8.084;2022-08-11T13:02:37;6.95;;;3.08;;
66485;SDS011;53303;47.476;8.084;2022-08-11T13:05:23;7.30;;;2.88;;
66485;SDS011;53303;47.476;8.084;2022-08-11T13:07:51;6.88;;;3.08;;
66485;SDS011;53303;47.476;8.084;2022-08-11T13:10:17;6.63;;;2.92;;
66485;SDS011;53303;47.476;8.084;2022-08-11T13:13:03;6.30;;;2.55;;
66485;SDS011;53303;47.476;8.084;2022-08-11T13:15:33;7.20;;;2.97;;
66485;SDS011;53303;47.476;8.084;2022-08-11T13:18:02;6.00;;;2.90;;
66485;SDS011;53303;47.476;8.084;2022-08-11T13:20:32;6.60;;;2.95;;
66485;SDS011;53303;47.476;8.084;2022-08-11T13:22:57;6.05;;;3.03;;
66485;SDS011;53303;47.476;8.084;2022-08-11T13:25:27;6.65;;;2.83;;
66485;SDS011;53303;47.476;8.084;2022-08-11T13:27:56;5.60;;;2.70;;
66485;SDS011;53303;47.476;8.084;2022-08-11T13:30:24;6.55;;;3.00;;
66485;SDS011;53303;47.476;8.084;2022-08-11T13:33:09;5.10;;;2.50;;
66485;SDS011;53303;47.476;8.084;2022-08-11T13:35:36;5.80;;;2.72;;
66485;SDS011;53303;47.476;8.084;2022-08-11T13:38:07;6.78;;;2.38;;
66485;SDS011;53303;47.476;8.084;2022-08-11T13:40:46;6.43;;;2.80;;
66485;SDS011;53303;47.476;8.084;2022-08-11T13:43:13;5.57;;;2.40;;
66485;SDS011;53303;47.476;8.084;2022-08-11T13:45:39;6.68;;;2.63;;
66485;SDS011;53303;47.476;8.084;2022-08-11T13:48:11;8.48;;;2.55;;
66485;SDS011;53303;47.476;8.084;2022-08-11T13:50:38;6.45;;;2.58;;
66485;SDS011;53303;47.476;8.084;2022-08-11T13:53:25;7.45;;;2.83;;
66485;SDS011;53303;47.476;8.084;2022-08-11T13:55:51;5.65;;;2.47;;
66485;SDS011;53303;47.476;8.084;2022-08-11T13:58:20;5.82;;;2.60;;
66485;SDS011;53303;47.476;8.084;2022-08-11T14:00:48;5.07;;;2.20;;
66485;SDS011;53303;47.476;8.084;2022-08-11T14:03:16;5.93;;;2.53;;
66485;SDS011;53303;47.476;8.084;2022-08-11T14:05:45;5.55;;;2.63;;
66485;SDS011;53303;47.476;8.084;2022-08-11T14:08:14;3.85;;;1.88;;
66485;SDS011;53303;47.476;8.084;2022-08-11T14:10:44;4.97;;;2.30;;
66485;SDS011;53303;47.476;8.084;2022-08-11T14:13:36;5.32;;;2.45;;
66485;SDS011;53303;47.476;8.084;2022-08-11T14:16:11;4.57;;;2.42;;
66485;SDS011;53303;47.476;8.084;2022-08-11T14:18:44;6.20;;;2.50;;
66485;SDS011;53303;47.476;8.084;2022-08-11T14:21:15;5.38;;;2.22;;
66485;SDS011;53303;47.476;8.084;2022-08-11T14:24:03;5.05;;;2.10;;
66485;SDS011;53303;47.476;8.084;2022-08-11T14:26:30;3.35;;;1.73;;
66485;SDS011;53303;47.476;8.084;2022-08-11T14:31:35;6.85;;;2.45;;
66485;SDS011;53303;47.476;8.084;2022-08-11T14:34:09;5.38;;;2.20;;
66485;SDS011;53303;47.476;8.084;2022-08-11T14:36:39;5.30;;;2.15;;
66485;SDS011;53303;47.476;8.084;2022-08-11T14:39:15;4.25;;;2.00;;
66485;SDS011;53303;47.476;8.084;2022-08-11T14:41:56;7.60;;;2.30;;
66485;SDS011;53303;47.476;8.084;2022-08-11T14:44:44;9.20;;;2.40;;
66485;SDS011;53303;47.476;8.084;2022-08-11T14:47:34;4.80;;;2.35;;
66485;SDS011;53303;47.476;8.084;2022-08-11T14:50:02;8.15;;;2.35;;
66485;SDS011;53303;47.476;8.084;2022-08-11T14:52:35;4.45;;;1.92;;
66485;SDS011;53303;47.476;8.084;2022-08-11T14:55:01;6.60;;;2.55;;
66485;SDS011;53303;47.476;8.084;2022-08-11T14:58:02;5.20;;;2.40;;
66485;SDS011;53303;47.476;8.084;2022-08-11T15:00:31;6.00;;;2.35;;
66485;SDS011;53303;47.476;8.084;2022-08-11T15:02:58;4.68;;;2.13;;
66485;SDS011;53303;47.476;8.084;2022-08-11T15:05:34;4.47;;;1.90;;
66485;SDS011;53303;47.476;8.084;2022-08-11T15:08:09;4.38;;;2.15;;
66485;SDS011;53303;47.476;8.084;2022-08-11T15:10:37;4.88;;;2.08;;
66485;SDS011;53303;47.476;8.084;2022-08-11T15:13:03;6.80;;;2.15;;
66485;SDS011;53303;47.476;8.084;2022-08-11T15:15:32;6.05;;;2.33;;
66485;SDS011;53303;47.476;8.084;2022-08-11T15:18:18;5.32;;;1.90;;
66485;SDS011;53303;47.476;8.084;2022-08-11T15:20:48;4.15;;;2.03;;
66485;SDS011;53303;47.476;8.084;2022-08-11T15:23:32;5.65;;;2.22;;
66485;SDS011;53303;47.476;8.084;2022-08-11T15:29:12;5.38;;;2.60;;
66485;SDS011;53303;47.476;8.084;2022-08-11T15:31:58;8.25;;;2.65;;
66485;SDS011;53303;47.476;8.084;2022-08-11T15:34:42;6.50;;;2.92;;
66485;SDS011;53303;47.476;8.084;2022-08-11T15:37:30;5.35;;;2.63;;
66485;SDS011;53303;47.476;8.084;2022-08-11T15:42:48;5.82;;;2.83;;
66485;SDS011;53303;47.476;8.084;2022-08-11T15:45:45;5.13;;;2.70;;
66485;SDS011;53303;47.476;8.084;2022-08-11T15:48:27;6.70;;;2.67;;
66485;SDS011;53303;47.476;8.084;2022-08-11T15:51:09;4.80;;;2.20;;
66485;SDS011;53303;47.476;8.084;2022-08-11T15:53:41;4.78;;;2.20;;
66485;SDS011;53303;47.476;8.084;2022-08-11T15:56:12;7.18;;;2.90;;
66485;SDS011;53303;47.476;8.084;2022-08-11T15:58:47;5.40;;;2.55;;
66485;SDS011;53303;47.476;8.084;2022-08-11T16:01:33;5.03;;;2.40;;
66485;SDS011;53303;47.476;8.084;2022-08-11T16:04:20;6.72;;;2.70;;
66485;SDS011;53303;47.476;8.084;2022-08-11T16:12:51;5.90;;;2.60;;
66485;SDS011;53303;47.476;8.084;2022-08-11T16:15:46;4.68;;;2.28;;
66485;SDS011;53303;47.476;8.084;2022-08-11T16:18:40;7.60;;;2.70;;
66485;SDS011;53303;47.476;8.084;2022-08-11T16:21:13;8.73;;;2.35;;
66485;SDS011;53303;47.476;8.084;2022-08-11T16:23:42;15.55;;;3.40;;
66485;SDS011;53303;47.476;8.084;2022-08-11T16:26:17;46.03;;;5.38;;
66485;SDS011;53303;47.476;8.084;2022-08-11T16:28:47;51.05;;;6.65;;
66485;SDS011;53303;47.476;8.084;2022-08-11T16:31:15;198.75;;;17.88;;
66485;SDS011;53303;47.476;8.084;2022-08-11T16:33:42;150.60;;;15.30;;
66485;SDS011;53303;47.476;8.084;2022-08-11T16:36:08;114.07;;;13.90;;
66485;SDS011;53303;47.476;8.084;2022-08-11T16:38:54;136.77;;;14.15;;
66485;SDS011;53303;47.476;8.084;2022-08-11T16:41:23;133.40;;;15.18;;
66485;SDS011;53303;47.476;8.084;2022-08-11T16:44:10;114.13;;;12.95;;
66485;SDS011;53303;47.476;8.084;2022-08-11T16:46:57;106.35;;;11.48;;
66485;SDS011;53303;47.476;8.084;2022-08-11T16:49:32;114.85;;;13.13;;
66485;SDS011;53303;47.476;8.084;2022-08-11T16:51:58;117.13;;;12.25;;
66485;SDS011;53303;47.476;8.084;2022-08-11T16:54:30;98.10;;;11.23;;
66485;SDS011;53303;47.476;8.084;2022-08-11T16:56:57;95.15;;;11.70;;
66485;SDS011;53303;47.476;8.084;2022-08-11T16:59:46;59.72;;;8.10;;
66485;SDS011;53303;47.476;8.084;2022-08-11T17:02:17;33.22;;;6.28;;
66485;SDS011;53303;47.476;8.084;2022-08-11T17:05:10;13.88;;;3.67;;
66485;SDS011;53303;47.476;8.084;2022-08-11T17:07:59;12.38;;;3.03;;
66485;SDS011;53303;47.476;8.084;2022-08-11T17:10:48;11.52;;;3.13;;
66485;SDS011;53303;47.476;8.084;2022-08-11T17:13:52;9.73;;;3.28;;
66485;SDS011;53303;47.476;8.084;2022-08-11T17:16:25;9.90;;;2.80;;
66485;SDS011;53303;47.476;8.084;2022-08-11T17:19:05;10.25;;;3.10;;
66485;SDS011;53303;47.476;8.084;2022-08-11T17:24:29;7.05;;;2.65;;
66485;SDS011;53303;47.476;8.084;2022-08-11T17:26:56;12.57;;;2.80;;
66485;SDS011;53303;47.476;8.084;2022-08-11T17:29:36;6.13;;;2.78;;
66485;SDS011;53303;47.476;8.084;2022-08-11T17:32:04;6.65;;;2.53;;
66485;SDS011;53303;47.476;8.084;2022-08-11T17:34:59;5.57;;;2.38;;
66485;SDS011;53303;47.476;8.084;2022-08-11T17:38:11;7.13;;;2.70;;
66485;SDS011;53303;47.476;8.084;2022-08-11T17:40:45;6.03;;;2.40;;
66485;SDS011;53303;47.476;8.084;2022-08-11T17:43:34;6.60;;;2.28;;
66485;SDS011;53303;47.476;8.084;2022-08-11T17:46:19;5.15;;;2.00;;
66485;SDS011;53303;47.476;8.084;2022-08-11T17:49:04;4.88;;;2.45;;
66485;SDS011;53303;47.476;8.084;2022-08-11T17:51:31;6.07;;;2.38;;
66485;SDS011;53303;47.476;8.084;2022-08-11T17:54:16;5.13;;;2.30;;
66485;SDS011;53303;47.476;8.084;2022-08-11T17:57:01;7.00;;;2.67;;
66485;SDS011;53303;47.476;8.084;2022-08-11T17:59:48;4.18;;;2.10;;
66485;SDS011;53303;47.476;8.084;2022-08-11T18:02:21;5.63;;;2.25;;
66485;SDS011;53303;47.476;8.084;2022-08-11T18:07:37;5.20;;;2.47;;
66485;SDS011;53303;47.476;8.084;2022-08-11T18:10:25;5.15;;;2.10;;
66485;SDS011;53303;47.476;8.084;2022-08-11T18:13:12;5.10;;;2.53;;
66485;SDS011;53303;47.476;8.084;2022-08-11T18:15:58;5.97;;;2.35;;
66485;SDS011;53303;47.476;8.084;2022-08-11T18:18:42;5.55;;;2.53;;
66485;SDS011;53303;47.476;8.084;2022-08-11T18:21:29;4.78;;;2.15;;
66485;SDS011;53303;47.476;8.084;2022-08-11T18:24:16;6.07;;;2.53;;
66485;SDS011;53303;47.476;8.084;2022-08-11T18:27:05;6.55;;;2.00;;
66485;SDS011;53303;47.476;8.084;2022-08-11T18:29:52;4.15;;;2.13;;
66485;SDS011;53303;47.476;8.084;2022-08-11T18:32:38;5.13;;;2.63;;
66485;SDS011;53303;47.476;8.084;2022-08-11T18:35:24;5.22;;;2.38;;
66485;SDS011;53303;47.476;8.084;2022-08-11T18:38:10;7.28;;;2.67;;
66485;SDS011;53303;47.476;8.084;2022-08-11T18:40:56;6.00;;;2.75;;
66485;SDS011;53303;47.476;8.084;2022-08-11T18:43:45;5.72;;;2.30;;
66485;SDS011;53303;47.476;8.084;2022-08-11T18:46:32;6.30;;;2.55;;
66485;SDS011;53303;47.476;8.084;2022-08-11T18:49:22;5.30;;;2.50;;
66485;SDS011;53303;47.476;8.084;2022-08-11T18:52:10;4.38;;;2.13;;
66485;SDS011;53303;47.476;8.084;2022-08-11T18:54:58;5.53;;;2.35;;
66485;SDS011;53303;47.476;8.084;2022-08-11T18:57:45;6.30;;;2.42;;
66485;SDS011;53303;47.476;8.084;2022-08-11T19:00:32;5.25;;;2.22;;
66485;SDS011;53303;47.476;8.084;2022-08-11T19:03:18;6.45;;;2.60;;
66485;SDS011;53303;47.476;8.084;2022-08-11T19:06:04;5.07;;;2.03;;
66485;SDS011;53303;47.476;8.084;2022-08-11T19:08:52;9.00;;;2.53;;
66485;SDS011;53303;47.476;8.084;2022-08-11T19:11:40;5.80;;;2.58;;
66485;SDS011;53303;47.476;8.084;2022-08-11T19:14:26;4.72;;;2.45;;
66485;SDS011;53303;47.476;8.084;2022-08-11T19:17:15;6.18;;;2.30;;
66485;SDS011;53303;47.476;8.084;2022-08-11T19:20:03;5.75;;;2.58;;
66485;SDS011;53303;47.476;8.084;2022-08-11T19:22:50;4.93;;;2.20;;
66485;SDS011;53303;47.476;8.084;2022-08-11T19:25:39;5.95;;;2.60;;
66485;SDS011;53303;47.476;8.084;2022-08-11T19:28:25;6.15;;;2.22;;
66485;SDS011;53303;47.476;8.084;2022-08-11T19:31:09;5.30;;;2.38;;
66485;SDS011;53303;47.476;8.084;2022-08-11T19:33:55;6.15;;;2.40;;
66485;SDS011;53303;47.476;8.084;2022-08-11T19:36:41;7.32;;;2.67;;
66485;SDS011;53303;47.476;8.084;2022-08-11T19:39:26;6.15;;;2.38;;
66485;SDS011;53303;47.476;8.084;2022-08-11T19:42:11;6.53;;;2.50;;
66485;SDS011;53303;47.476;8.084;2022-08-11T19:44:57;8.57;;;2.40;;
66485;SDS011;53303;47.476;8.084;2022-08-11T19:47:45;6.07;;;2.47;;
66485;SDS011;53303;47.476;8.084;2022-08-11T19:50:31;7.18;;;2.20;;
66485;SDS011;53303;47.476;8.084;2022-08-11T19:53:18;5.70;;;2.35;;
66485;SDS011;53303;47.476;8.084;2022-08-11T19:56:04;5.35;;;2.40;;
66485;SDS011;53303;47.476;8.084;2022-08-11T19:58:50;6.00;;;2.28;;
66485;SDS011;53303;47.476;8.084;2022-08-11T20:01:35;5.60;;;2.50;;
66485;SDS011;53303;47.476;8.084;2022-08-11T20:04:20;6.57;;;2.03;;
66485;SDS011;53303;47.476;8.084;2022-08-11T20:07:04;8.65;;;2.47;;